Time;durP1;ratioP1;P1;durP2;ratioP2;P2;SDS_P1;SDS_P2;PMS_P1;PMS_P2;Temp;Humidity;BMP_temperature;BMP_pressure;BME280_temperature;BME280_humidity;BME280_pressure;Samples;Min_cycle;Max_cycle;Signal;HPM_P1;HPM_P2
2023/09/14 00:00:43;;;;;;;0.70;0.50;;;24.40;61.70;;;;;;6134527;23;20057;-73
2023/09/14 00:03:09;;;;;;;1.50;0.63;;;;;;;;;;6134132;23;20393;-73
2023/09/14 00:05:53;;;;;;;0.77;0.50;;;24.40;56.20;;;;;;6134528;23;20032;-73
2023/09/14 00:08:20;;;;;;;1.13;0.52;;;;;;;;;;6134483;23;19998;-73
2023/09/14 00:10:46;;;;;;;1.55;0.77;;;;;;;;;;6124975;23;20006;-72
2023/09/14 00:13:12;;;;;;;0.88;0.60;;;;;;;;;;6134260;23;20338;-72
2023/09/14 00:15:41;;;;;;;0.98;0.70;;;;;;;;;;6134813;23;20005;-72
2023/09/14 00:18:07;;;;;;;1.00;0.50;;;;;;;;;;6134244;23;20001;-73
2023/09/14 00:20:34;;;;;;;0.73;0.50;;;;;;;;;;6134290;23;20016;-73
2023/09/14 00:23:00;;;;;;;0.60;0.45;;;;;;;;;;6124769;23;20013;-72
2023/09/14 00:25:26;;;;;;;0.90;0.60;;;;;;;;;;6124555;23;20006;-76
2023/09/14 00:27:56;;;;;;;0.60;0.47;;;;;;;;;;6097422;23;20002;-77
2023/09/14 00:30:24;;;;;;;0.47;0.47;;;;;;;;;;6098467;23;20069;-76
2023/09/14 00:32:52;;;;;;;0.80;0.50;;;;;;;;;;6074109;23;20006;-76
2023/09/14 00:35:19;;;;;;;1.23;0.50;;;;;;;;;;6134104;23;20081;-77
2023/09/14 00:37:45;;;;;;;0.70;0.40;;;;;;;;;;6134232;23;19998;-77
2023/09/14 00:40:13;;;;;;;1.38;0.70;;;24.20;62.00;;;;;;6134069;23;20429;-76
2023/09/14 00:42:43;;;;;;;1.27;0.60;;;24.20;62.00;;;;;;6134743;23;20002;-77
2023/09/14 00:45:10;;;;;;;1.00;0.70;;;24.20;61.80;;;;;;6134680;23;20001;-76
2023/09/14 00:47:38;;;;;;;1.75;0.50;;;24.20;61.90;;;;;;6098404;23;20087;-76
2023/09/14 00:50:05;;;;;;;1.50;0.50;;;;;;;;;;6133884;23;20049;-75
2023/09/14 00:52:36;;;;;;;1.38;0.60;;;24.10;62.00;;;;;;6098229;23;19998;-77
2023/09/14 00:55:05;;;;;;;1.25;0.60;;;24.10;61.90;;;;;;6134049;23;20010;-73
2023/09/14 00:57:32;;;;;;;1.37;0.60;;;;;;;;;;6098448;23;20393;-73
2023/09/14 00:59:58;;;;;;;0.95;0.47;;;;;;;;;;6134050;23;20056;-73
2023/09/14 01:02:26;;;;;;;1.20;0.60;;;24.20;62.00;;;;;;6133734;23;20413;-72
2023/09/14 01:04:52;;;;;;;1.08;0.47;;;;;;;;;;6134132;23;20425;-73
2023/09/14 01:07:18;;;;;;;1.60;0.68;;;;;;;;;;6134011;23;20033;-72
2023/09/14 01:09:44;;;;;;;1.27;0.70;;;;;;;;;;6134137;23;19998;-73
2023/09/14 01:12:13;;;;;;;0.90;0.60;;;;;;;;;;6133929;23;19998;-75
2023/09/14 01:14:44;;;;;;;2.13;0.80;;;;;;;;;;6133993;23;20377;-76
2023/09/14 01:17:23;;;;;;;0.93;0.60;;;;;;;;;;6124038;23;20036;-77
2023/09/14 01:20:13;;;;;;;0.88;0.60;;;24.00;56.70;;;;;;6134022;23;19997;-77
2023/09/14 01:22:39;;;;;;;;;;;24.10;62.60;;;;;;6134508;23;20429;-77
2023/09/14 01:25:06;;;;;;;1.25;0.40;;;;;;;;;;6133824;23;19987;-77
2023/09/14 01:27:32;;;;;;;1.00;0.50;;;;;;;;;;6133947;23;20025;-76
2023/09/14 01:29:59;;;;;;;0.93;0.60;;;;;;;;;;6108653;23;20002;-72
2023/09/14 01:32:27;;;;;;;1.08;0.65;;;23.90;62.10;;;;;;6098189;23;20029;-72
2023/09/14 01:34:53;;;;;;;0.80;0.50;;;;;;;;;;6124411;23;20010;-72
2023/09/14 01:37:19;;;;;;;0.73;0.30;;;;;;;;;;6133946;23;19998;-72
2023/09/14 01:39:46;;;;;;;1.17;0.63;;;23.90;62.20;;;;;;6133938;23;20334;-72
2023/09/14 01:42:12;;;;;;;1.05;0.70;;;;;;;;;;6133957;23;20389;-72
2023/09/14 01:44:39;;;;;;;1.00;0.57;;;;;;;;;;6134035;23;20038;-73
2023/09/14 01:47:05;;;;;;;1.00;0.50;;;;;;;;;;6133973;23;19994;-73
2023/09/14 01:49:31;;;;;;;0.35;0.30;;;;;;;;;;6134021;23;20009;-73
2023/09/14 01:51:57;;;;;;;1.02;0.63;;;;;;;;;;6125920;23;20006;-72
2023/09/14 01:54:23;;;;;;;1.83;0.50;;;;;;;;;;6135576;23;20081;-73
2023/09/14 01:56:49;;;;;;;1.13;0.50;;;;;;;;;;6135736;23;20061;-73
2023/09/14 01:59:17;;;;;;;0.95;0.50;;;;;;;;;;6135658;23;19997;-76
2023/09/14 02:01:43;;;;;;;0.93;0.55;;;;;;;;;;6135256;23;19997;-72
2023/09/14 02:04:09;;;;;;;2.10;0.50;;;;;;;;;;6135577;23;20396;-72
2023/09/14 02:06:35;;;;;;;1.23;0.60;;;;;;;;;;6135429;23;19997;-72
2023/09/14 02:09:01;;;;;;;0.70;0.47;;;;;;;;;;6135505;23;19998;-72
2023/09/14 02:11:27;;;;;;;1.13;0.55;;;;;;;;;;6135493;23;20017;-72
2023/09/14 02:13:53;;;;;;;0.52;0.40;;;;;;;;;;6135409;23;20017;-72
2023/09/14 02:16:19;;;;;;;0.40;0.30;;;;;;;;;;6136190;23;20114;-76
2023/09/14 02:18:45;;;;;;;1.05;0.57;;;;;;;;;;6076020;23;20105;-77
2023/09/14 02:21:12;;;;;;;1.00;0.43;;;;;;;;;;6135397;23;19998;-76
2023/09/14 02:23:38;;;;;;;0.82;0.45;;;;;;;;;;6135491;23;20005;-77
2023/09/14 02:26:04;;;;;;;2.10;0.63;;;;;;;;;;6135820;23;20005;-76
2023/09/14 02:28:30;;;;;;;0.77;0.60;;;;;;;;;;6135550;23;20002;-72
2023/09/14 02:30:56;;;;;;;2.20;1.15;;;;;;;;;;6135322;23;20001;-73
2023/09/14 02:33:22;;;;;;;0.70;0.60;;;;;;;;;;6135227;23;20006;-72
2023/09/14 02:35:50;;;;;;;0.90;0.50;;;;;;;;;;6135331;23;20010;-73
2023/09/14 02:38:16;;;;;;;1.40;0.70;;;;;;;;;;6110121;23;20009;-73
2023/09/14 02:40:42;;;;;;;1.05;0.65;;;;;;;;;;6135270;23;20508;-73
2023/09/14 02:43:08;;;;;;;1.42;0.63;;;;;;;;;;6135135;23;20089;-72
2023/09/14 02:45:35;;;;;;;0.88;0.52;;;;;;;;;;6125812;23;20002;-76
2023/09/14 02:48:01;;;;;;;1.30;0.65;;;;;;;;;;6125645;23;20002;-76
2023/09/14 02:50:28;;;;;;;1.70;0.50;;;;;;;;;;6125170;23;20422;-77
2023/09/14 02:52:54;;;;;;;0.60;0.50;;;;;;;;;;6125248;23;20089;-77
2023/09/14 02:55:21;;;;;;;1.08;0.52;;;;;;;;;;6125717;23;20010;-78
2023/09/14 02:57:48;;;;;;;1.10;0.50;;;;;;;;;;6125462;23;20008;-73
2023/09/14 03:00:17;;;;;;;1.65;0.63;;;;;;;;;;6125648;23;20006;-73
2023/09/14 03:02:46;;;;;;;0.60;0.30;;;23.40;63.90;;;;;;6124915;23;20013;-73
2023/09/14 03:05:13;;;;;;;0.55;0.45;;;;;;;;;;6125510;23;20001;-72
2023/09/14 03:07:39;;;;;;;2.42;0.60;;;;;;;;;;6125550;23;20002;-73
2023/09/14 03:10:07;;;;;;;1.42;0.60;;;23.40;64.20;;;;;;6125103;23;20001;-72
2023/09/14 03:12:33;;;;;;;1.75;0.45;;;;;;;;;;6099469;23;20466;-72
2023/09/14 03:15:00;;;;;;;0.50;0.30;;;;;;;;;;6125999;23;20014;-77
2023/09/14 03:17:26;;;;;;;0.73;0.47;;;;;;;;;;6125995;23;20009;-77
2023/09/14 03:19:53;;;;;;;1.27;0.70;;;;;;;;;;6125299;23;20460;-77
2023/09/14 03:22:19;;;;;;;0.82;0.50;;;;;;;;;;6125442;23;20060;-77
2023/09/14 03:24:46;;;;;;;1.02;0.50;;;;;;;;;;6125527;23;20006;-73
2023/09/14 03:27:12;;;;;;;0.85;0.43;;;;;;;;;;6125701;23;20005;-77
2023/09/14 03:29:38;;;;;;;1.38;0.60;;;;;;;;;;6135142;23;20346;-77
2023/09/14 03:32:04;;;;;;;1.02;0.50;;;;;;;;;;6135412;23;19994;-77
2023/09/14 03:34:30;;;;;;;1.55;0.70;;;;;;;;;;6135066;23;20010;-77
2023/09/14 03:36:56;;;;;;;1.30;0.52;;;;;;;;;;6134828;23;20330;-77
2023/09/14 03:39:22;;;;;;;2.13;0.55;;;;;;;;;;6134912;23;20015;-77
2023/09/14 03:41:49;;;;;;;1.27;0.60;;;;;;;;;;6135302;23;20440;-77
2023/09/14 03:44:15;;;;;;;0.95;0.50;;;;;;;;;;6134953;23;20077;-77
2023/09/14 03:46:41;;;;;;;0.85;0.40;;;;;;;;;;6134770;23;20009;-77
2023/09/14 03:49:07;;;;;;;1.33;0.55;;;;;;;;;;6134702;23;19998;-77
2023/09/14 03:51:34;;;;;;;1.25;0.70;;;;;;;;;;6134867;23;20002;-77
2023/09/14 03:54:00;;;;;;;2.17;0.82;;;;;;;;;;6134699;23;20092;-73
2023/09/14 03:56:26;;;;;;;2.20;0.70;;;;;;;;;;6134620;23;19994;-73
2023/09/14 03:58:52;;;;;;;1.40;0.55;;;;;;;;;;6134526;23;20002;-73
2023/09/14 04:01:18;;;;;;;2.55;0.77;;;;;;;;;;6134631;23;19998;-73
2023/09/14 04:03:44;;;;;;;1.83;0.70;;;23.10;64.50;;;;;;6134361;23;20069;-73
2023/09/14 04:06:10;;;;;;;1.77;1.10;;;;;;;;;;6134501;23;20438;-73
2023/09/14 04:08:36;;;;;;;2.05;1.10;;;;;;;;;;6134482;23;20009;-73
2023/09/14 04:11:02;;;;;;;1.23;1.13;;;;;;;;;;6134952;23;20004;-73
2023/09/14 04:13:35;;;;;;;2.30;1.60;;;23.10;60.40;;;;;;6134215;23;20030;-73
2023/09/14 04:16:02;;;;;;;2.30;2.10;;;23.10;66.20;;;;;;6124924;23;20109;-73
2023/09/14 04:18:29;;;;;;;2.80;2.55;;;;;;;;;;6134525;23;20077;-73
2023/09/14 04:20:55;;;;;;;3.33;2.90;;;23.10;65.30;;;;;;6134510;23;20085;-73
2023/09/14 04:23:21;;;;;;;3.58;3.28;;;;;;;;;;6134599;23;20068;-73
2023/09/14 04:25:48;;;;;;;3.75;3.47;;;23.00;66.20;;;;;;6134436;23;20032;-73
2023/09/14 04:28:15;;;;;;;4.28;3.97;;;22.90;64.30;;;;;;6134415;23;20005;-73
2023/09/14 04:30:43;;;;;;;4.57;4.25;;;23.00;66.70;;;;;;6134306;23;20053;-73
2023/09/14 04:33:09;;;;;;;5.28;4.88;;;;;;;;;;6134267;23;20573;-73
2023/09/14 04:35:35;;;;;;;5.07;4.68;;;;;;;;;;6124743;23;20014;-73
2023/09/14 04:38:01;;;;;;;6.03;5.05;;;;;;;;;;6134199;23;20005;-73
2023/09/14 04:40:27;;;;;;;5.78;5.38;;;;;;;;;;6125338;23;20009;-73
2023/09/14 04:42:53;;;;;;;5.97;5.47;;;;;;;;;;6134210;23;20334;-73
2023/09/14 04:45:19;;;;;;;5.57;5.18;;;;;;;;;;6134303;23;20002;-73
2023/09/14 04:47:45;;;;;;;5.38;4.88;;;;;;;;;;6134132;23;20002;-73
2023/09/14 04:50:11;;;;;;;6.13;5.63;;;;;;;;;;6134229;23;19994;-76
2023/09/14 04:52:37;;;;;;;5.60;5.20;;;;;;;;;;6098387;23;20014;-73
2023/09/14 04:55:04;;;;;;;6.07;5.57;;;;;;;;;;6133935;23;20010;-73
2023/09/14 04:57:30;;;;;;;5.28;4.88;;;;;;;;;;6124816;23;20153;-74
2023/09/14 04:59:56;;;;;;;5.63;5.22;;;;;;;;;;6124194;23;20006;-73
2023/09/14 05:02:22;;;;;;;5.22;4.82;;;;;;;;;;6133740;23;20028;-74
2023/09/14 05:04:48;;;;;;;4.82;4.53;;;;;;;;;;6134093;23;20004;-73
2023/09/14 05:07:14;;;;;;;4.70;4.30;;;;;;;;;;6134530;23;20005;-74
2023/09/14 05:09:40;;;;;;;4.45;4.05;;;;;;;;;;6134054;23;19998;-75
2023/09/14 05:12:06;;;;;;;4.70;4.30;;;;;;;;;;6133996;23;20422;-74
2023/09/14 05:14:32;;;;;;;4.55;4.15;;;;;;;;;;6130384;23;20010;-76
2023/09/14 05:16:59;;;;;;;3.90;3.60;;;;;;;;;;6124679;23;20028;-74
2023/09/14 05:19:25;;;;;;;4.00;3.70;;;;;;;;;;6133944;23;20433;-76
2023/09/14 05:21:51;;;;;;;3.65;3.40;;;;;;;;;;6133980;23;20001;-76
2023/09/14 05:24:17;;;;;;;3.10;2.90;;;;;;;;;;6133882;23;20201;-75
2023/09/14 05:26:43;;;;;;;3.13;2.92;;;;;;;;;;6135981;23;19994;-75
2023/09/14 05:29:09;;;;;;;3.42;3.13;;;;;;;;;;6135851;23;20077;-75
2023/09/14 05:31:35;;;;;;;2.38;2.15;;;;;;;;;;6110051;23;20005;-74
2023/09/14 05:34:01;;;;;;;3.00;2.60;;;;;;;;;;6110024;23;20010;-75
2023/09/14 05:36:27;;;;;;;2.50;2.30;;;;;;;;;;6126095;23;20501;-74
2023/09/14 05:38:53;;;;;;;2.40;2.20;;;;;;;;;;6135838;23;20006;-79
2023/09/14 05:41:19;;;;;;;2.20;2.03;;;;;;;;;;6076148;23;20014;-77
2023/09/14 05:43:45;;;;;;;1.95;1.85;;;;;;;;;;6135832;23;20001;-78
2023/09/14 05:46:11;;;;;;;2.35;2.15;;;;;;;;;;6135817;23;19998;-77
2023/09/14 05:48:37;;;;;;;2.25;1.75;;;;;;;;;;6135864;23;20001;-77
2023/09/14 05:51:04;;;;;;;1.73;1.50;;;;;;;;;;6135896;23;20002;-77
2023/09/14 05:53:30;;;;;;;1.50;1.40;;;;;;;;;;6135645;23;19994;-77
2023/09/14 05:55:56;;;;;;;1.27;1.17;;;;;;;;;;6136313;23;20438;-74
2023/09/14 05:58:22;;;;;;;1.50;1.25;;;;;;;;;;6135668;23;20002;-74
2023/09/14 06:00:48;;;;;;;1.52;0.90;;;;;;;;;;6135532;23;20055;-74
2023/09/14 06:03:14;;;;;;;1.58;1.48;;;;;;;;;;6135305;23;20497;-74
2023/09/14 06:05:40;;;;;;;1.25;1.05;;;;;;;;;;6126347;23;20252;-75
2023/09/14 06:08:07;;;;;;;1.27;0.93;;;;;;;;;;6125907;23;20527;-74
2023/09/14 06:10:33;;;;;;;1.60;1.10;;;;;;;;;;6125719;23;20002;-75
2023/09/14 06:13:00;;;;;;;1.30;1.20;;;;;;;;;;6126136;23;20002;-74
2023/09/14 06:15:26;;;;;;;1.63;0.90;;;;;;;;;;6125558;23;20391;-74
2023/09/14 06:17:53;;;;;;;1.77;0.90;;;;;;;;;;6125672;23;19998;-73
2023/09/14 06:20:19;;;;;;;2.28;0.90;;;;;;;;;;6125904;23;20137;-73
2023/09/14 06:22:46;;;;;;;6.57;1.17;;;;;;;;;;6126693;23;20379;-75
2023/09/14 06:25:12;;;;;;;1.30;0.95;;;;;;;;;;6126015;23;20002;-75
2023/09/14 06:27:38;;;;;;;3.10;1.10;;;;;;;;;;6135523;23;20061;-75
2023/09/14 06:30:06;;;;;;;2.75;1.00;;;;;;;;;;6135361;23;20002;-75
2023/09/14 06:32:32;;;;;;;0.98;0.80;;;;;;;;;;6126048;23;20359;-74
2023/09/14 06:34:58;;;;;;;5.25;0.68;;;;;;;;;;6135262;23;20315;-77
2023/09/14 06:37:24;;;;;;;1.80;0.80;;;;;;;;;;6135243;23;20009;-76
2023/09/14 06:39:50;;;;;;;1.73;0.80;;;;;;;;;;6135431;23;20002;-75
2023/09/14 06:42:16;;;;;;;1.23;0.60;;;;;;;;;;6135446;23;20056;-75
2023/09/14 06:44:42;;;;;;;1.05;0.68;;;;;;;;;;6135370;23;20053;-75
2023/09/14 06:47:08;;;;;;;4.05;1.08;;;;;;;;;;6135397;23;20002;-75
2023/09/14 06:49:34;;;;;;;1.33;0.60;;;;;;;;;;6135502;23;20329;-77
2023/09/14 06:52:00;;;;;;;1.65;0.73;;;;;;;;;;6136004;23;19998;-76
2023/09/14 06:54:26;;;;;;;1.77;0.70;;;;;;;;;;6135395;23;20037;-77
2023/09/14 06:56:52;;;;;;;1.23;0.95;;;;;;;;;;6135390;23;20433;-76
2023/09/14 06:59:18;;;;;;;5.55;0.95;;;;;;;;;;6135379;23;20028;-76
2023/09/14 07:01:44;;;;;;;2.03;0.80;;;;;;;;;;6098977;23;20009;-75
2023/09/14 07:04:10;;;;;;;1.40;0.75;;;;;;;;;;6135340;23;20013;-76
2023/09/14 07:06:36;;;;;;;1.40;0.80;;;;;;;;;;6135366;23;20083;-76
2023/09/14 07:09:03;;;;;;;2.47;0.73;;;;;;;;;;6135378;23;20005;-75
2023/09/14 07:11:29;;;;;;;2.90;0.85;;;;;;;;;;6135277;23;20025;-77
2023/09/14 07:13:55;;;;;;;1.17;0.70;;;;;;;;;;6135764;23;20053;-76
2023/09/14 07:16:21;;;;;;;2.00;1.10;;;;;;;;;;6099483;23;20056;-76
2023/09/14 07:18:47;;;;;;;1.08;0.70;;;;;;;;;;6135087;23;20429;-76
2023/09/14 07:21:13;;;;;;;3.15;1.00;;;;;;;;;;6135734;23;19994;-76
2023/09/14 07:23:40;;;;;;;2.83;1.00;;;;;;;;;;6125629;23;19998;-77
2023/09/14 07:26:07;;;;;;;1.15;0.68;;;;;;;;;;6125636;23;20006;-76
2023/09/14 07:28:33;;;;;;;1.55;0.90;;;;;;;;;;6125376;23;20002;-76
2023/09/14 07:31:03;;;;;;;2.22;0.93;;;22.60;62.20;;;;;;6125412;23;20032;-71
2023/09/14 07:33:30;;;;;;;1.55;0.70;;;;;;;;;;6125167;23;20002;-72
2023/09/14 07:35:56;;;;;;;1.67;0.80;;;;;;;;;;6125385;23;20358;-72
2023/09/14 07:38:22;;;;;;;1.70;1.02;;;;;;;;;;6125048;23;20002;-72
2023/09/14 07:40:49;;;;;;;4.00;1.17;;;;;;;;;;6125238;23;20006;-72
2023/09/14 07:43:15;;;;;;;1.85;0.77;;;;;;;;;;6124930;23;20464;-72
2023/09/14 07:45:43;;;;;;;1.30;0.80;;;;;;;;;;6125700;23;20009;-73
2023/09/14 07:48:10;;;;;;;1.10;1.00;;;22.60;62.30;;;;;;6125271;23;20009;-76
2023/09/14 07:50:39;;;;;;;2.63;0.90;;;22.60;62.60;;;;;;6125582;23;20002;-77
2023/09/14 07:53:09;;;;;;;3.33;0.88;;;22.60;62.60;;;;;;6125448;23;19998;-77
2023/09/14 07:55:36;;;;;;;3.22;1.00;;;;;;;;;;6125461;23;20017;-76
2023/09/14 07:58:03;;;;;;;3.10;1.17;;;;;;;;;;6125560;23;20002;-77
2023/09/14 08:00:30;;;;;;;1.60;0.75;;;;;;;;;;6125343;23;20396;-77
2023/09/14 08:02:56;;;;;;;1.30;0.70;;;;;;;;;;6124842;23;20010;-76
2023/09/14 08:05:23;;;;;;;1.55;0.80;;;;;;;;;;6125098;23;20009;-76
2023/09/14 08:07:49;;;;;;;3.13;1.05;;;;;;;;;;6125203;23;20013;-76
2023/09/14 08:10:16;;;;;;;1.42;0.90;;;;;;;;;;6125046;23;20002;-76
2023/09/14 08:12:42;;;;;;;2.85;0.95;;;;;;;;;;6134863;23;20006;-76
2023/09/14 08:15:08;;;;;;;1.08;0.60;;;;;;;;;;6134533;23;20037;-76
2023/09/14 08:17:34;;;;;;;2.85;0.80;;;;;;;;;;6135773;23;20010;-77
2023/09/14 08:20:00;;;;;;;1.85;0.98;;;;;;;;;;6125164;23;20053;-77
2023/09/14 08:22:27;;;;;;;1.50;0.70;;;;;;;;;;6134671;23;19997;-77
2023/09/14 08:24:54;;;;;;;1.35;0.98;;;;;;;;;;6134462;23;20025;-77
2023/09/14 08:27:20;;;;;;;1.67;0.60;;;;;;;;;;6134533;23;20076;-77
2023/09/14 08:29:46;;;;;;;2.65;0.70;;;;;;;;;;6134675;23;20036;-77
2023/09/14 08:32:12;;;;;;;1.33;0.90;;;;;;;;;;6134603;23;20009;-77
2023/09/14 08:34:39;;;;;;;1.30;0.80;;;;;;;;;;6125187;23;20018;-77
2023/09/14 08:37:09;;;;;;;3.33;1.13;;;23.00;63.20;;;;;;6134567;23;19994;-78
2023/09/14 08:39:35;;;;;;;3.10;0.95;;;;;;;;;;6134542;23;20330;-74
2023/09/14 08:42:01;;;;;;;2.00;0.80;;;;;;;;;;6134357;23;19994;-74
2023/09/14 08:44:27;;;;;;;2.45;0.90;;;;;;;;;;6134436;23;20024;-76
2023/09/14 08:46:55;;;;;;;3.05;0.98;;;22.90;63.10;;;;;;6135667;23;20069;-74
2023/09/14 08:49:22;;;;;;;1.92;0.77;;;;;;;;;;6134511;23;20430;-74
2023/09/14 08:51:50;;;;;;;3.28;1.10;;;23.00;63.50;;;;;;6134326;23;19994;-74
2023/09/14 08:54:17;;;;;;;2.53;1.27;;;23.10;60.90;;;;;;6134238;23;20438;-73
2023/09/14 08:56:43;;;;;;;2.88;1.10;;;;;;;;;;6134326;23;20004;-72
2023/09/14 08:59:11;;;;;;;2.50;1.20;;;23.00;63.60;;;;;;6134154;23;20437;-73
2023/09/14 09:01:37;;;;;;;4.32;1.40;;;;;;;;;;6133922;23;19994;-76
2023/09/14 09:04:03;;;;;;;3.13;1.13;;;;;;;;;;6134298;23;19998;-73
2023/09/14 09:06:29;;;;;;;3.40;1.42;;;;;;;;;;6134300;23;20108;-72
2023/09/14 09:08:59;;;;;;;5.90;1.30;;;23.20;63.80;;;;;;6134078;23;20005;-70
2023/09/14 09:11:25;;;;;;;5.72;1.60;;;;;;;;;;6134170;23;20441;-71
2023/09/14 09:13:51;;;;;;;3.35;1.67;;;;;;;;;;6125168;23;20486;-73
2023/09/14 09:16:18;;;;;;;4.55;1.67;;;;;;;;;;6124706;23;20049;-73
2023/09/14 09:19:03;;;;;;;3.30;1.38;;;23.40;58.30;;;;;;6124668;23;20006;-73
2023/09/14 09:21:34;;;;;;;1.63;1.10;;;23.40;64.00;;;;;;6124758;23;20018;-73
2023/09/14 09:24:03;;;;;;;3.40;1.30;;;23.50;63.70;;;;;;6124324;23;19998;-74
2023/09/14 09:26:36;;;;;;;5.95;1.45;;;23.50;58.30;;;;;;6124765;23;19998;-74
2023/09/14 09:29:28;;;;;;;3.10;1.20;;;23.60;58.30;;;;;;6124289;23;20654;-74
2023/09/14 09:31:55;;;;;;;3.13;1.25;;;;;;;;;;6117986;23;20006;-73
2023/09/14 09:34:25;;;;;;;2.13;1.48;;;23.60;63.80;;;;;;6124493;23;20118;-74
2023/09/14 09:36:56;;;;;;;4.22;1.35;;;23.80;64.00;;;;;;6124583;23;19998;-74
2023/09/14 09:39:23;;;;;;;3.28;1.10;;;;;;;;;;6124394;23;20144;-74
2023/09/14 09:41:50;;;;;;;5.45;1.30;;;;;;;;;;6124473;23;20002;-73
2023/09/14 09:44:18;;;;;;;3.95;1.65;;;23.60;63.60;;;;;;6124432;23;20064;-73
2023/09/14 09:46:45;;;;;;;4.63;1.45;;;;;;;;;;6124460;23;20369;-73
2023/09/14 09:49:19;;;;;;;5.07;1.73;;;23.90;58.20;;;;;;6123909;23;20418;-73
2023/09/14 09:51:49;;;;;;;2.75;1.05;;;;;;;;;;6124381;23;20032;-73
2023/09/14 09:54:19;;;;;;;2.95;1.58;;;24.00;63.70;;;;;;6124190;23;20050;-73
2023/09/14 09:56:45;;;;;;;2.30;1.23;;;;;;;;;;6124281;23;20001;-74
2023/09/14 09:59:14;;;;;;;5.90;1.50;;;24.10;63.80;;;;;;6124330;23;20026;-75
2023/09/14 10:01:44;;;;;;;2.73;1.07;;;24.20;63.50;;;;;;6123960;23;20013;-75
2023/09/14 10:04:12;;;;;;;2.67;1.25;;;24.20;63.60;;;;;;6124742;23;20072;-76
2023/09/14 10:06:40;;;;;;;2.35;1.10;;;;;;;;;;6124949;23;20350;-75
2023/09/14 10:09:11;;;;;;;2.95;1.38;;;23.80;57.40;;;;;;6123997;23;20006;-74
2023/09/14 10:11:39;;;;;;;2.72;1.45;;;24.40;63.10;;;;;;6125137;23;20002;-73
2023/09/14 10:14:06;;;;;;;3.10;1.63;;;;;;;;;;6125942;23;20017;-73
2023/09/14 10:16:41;;;;;;;4.43;1.38;;;24.70;57.50;;;;;;6125845;23;20329;-75
2023/09/14 10:19:08;;;;;;;2.85;1.35;;;24.60;59.30;;;;;;6135585;23;20001;-73
2023/09/14 10:21:34;;;;;;;5.90;1.50;;;;;;;;;;6126198;23;20379;-74
2023/09/14 10:24:03;;;;;;;1.60;1.17;;;24.80;61.80;;;;;;6126100;23;19998;-74
2023/09/14 10:26:30;;;;;;;2.58;1.38;;;24.70;62.30;;;;;;6135466;23;20496;-73
2023/09/14 10:28:56;;;;;;;2.72;1.10;;;;;;;;;;6135457;23;20005;-74
2023/09/14 10:31:24;;;;;;;2.55;0.98;;;24.70;63.00;;;;;;6135428;23;20004;-73
2023/09/14 10:33:51;;;;;;;2.70;1.50;;;;;;;;;;6125880;23;20002;-75
2023/09/14 10:36:17;;;;;;;1.92;1.23;;;;;;;;;;6126060;23;20006;-75
2023/09/14 10:38:43;;;;;;;3.30;1.45;;;;;;;;;;6099566;23;20344;-74
2023/09/14 10:41:11;;;;;;;3.90;1.55;;;24.70;60.90;;;;;;6135385;23;20002;-74
2023/09/14 10:43:38;;;;;;;4.80;1.67;;;;;;;;;;6135594;23;20001;-75
2023/09/14 10:46:06;;;;;;;4.90;1.60;;;;;;;;;;6135348;23;19998;-73
2023/09/14 10:48:33;;;;;;;3.50;1.73;;;24.80;63.30;;;;;;6135284;23;20009;-74
2023/09/14 10:51:00;;;;;;;2.80;1.40;;;;;;;;;;6135385;23;19998;-74
2023/09/14 10:53:28;;;;;;;4.45;1.42;;;24.90;60.20;;;;;;6135013;23;20005;-74
2023/09/14 10:55:54;;;;;;;2.80;1.50;;;;;;;;;;6125782;23;20382;-77
2023/09/14 10:58:20;;;;;;;3.13;1.70;;;25.10;61.00;;;;;;6135277;23;20422;-73
2023/09/14 11:00:56;;;;;;;3.92;1.60;;;25.30;61.90;;;;;;6125373;23;20001;-74
2023/09/14 11:03:22;;;;;;;1.85;1.23;;;;;;;;;;6125137;23;20081;-74
2023/09/14 11:05:50;;;;;;;3.03;1.55;;;25.40;61.20;;;;;;6135060;23;19998;-73
2023/09/14 11:08:19;;;;;;;4.20;1.70;;;25.80;61.80;;;;;;6135010;23;20469;-72
2023/09/14 11:10:59;;;;;;;2.70;1.40;;;25.60;55.90;;;;;;6134981;23;20005;-72
2023/09/14 11:13:28;;;;;;;3.50;1.30;;;25.60;60.90;;;;;;6134761;23;20005;-71
2023/09/14 11:16:13;;;;;;;2.55;1.52;;;25.60;55.90;;;;;;6125489;23;20303;-72
2023/09/14 11:18:45;;;;;;;2.22;1.40;;;25.50;55.90;;;;;;6125281;23;20002;-72
2023/09/14 11:21:42;;;;;;;3.67;1.42;;;25.40;55.80;;;;;;6125530;23;20002;-73
2023/09/14 11:24:09;;;;;;;3.70;1.60;;;;;;;;;;6124479;23;19998;-73
2023/09/14 11:26:46;;;;;;;5.45;1.60;;;25.50;55.80;;;;;;6125387;23;20013;-72
2023/09/14 11:29:13;;;;;;;3.13;1.50;;;25.50;59.80;;;;;;6135009;23;20004;-74
2023/09/14 11:31:39;;;;;;;1.90;1.45;;;25.50;61.70;;;;;;6135028;23;20356;-73
2023/09/14 11:34:10;;;;;;;3.47;1.50;;;25.60;61.20;;;;;;6134839;23;20006;-74
2023/09/14 11:36:37;;;;;;;3.20;1.20;;;25.60;60.80;;;;;;6134765;23;20002;-73
2023/09/14 11:39:10;;;;;;;3.03;1.70;;;25.60;55.70;;;;;;6134852;23;20351;-74
2023/09/14 11:41:48;;;;;;;2.30;1.30;;;25.50;55.60;;;;;;6124759;23;20002;-74
2023/09/14 11:44:14;;;;;;;3.70;1.70;;;;;;;;;;6124943;23;20493;-75
2023/09/14 11:46:41;;;;;;;3.22;1.25;;;;;;;;;;6134705;23;19998;-74
2023/09/14 11:49:08;;;;;;;3.42;1.38;;;;;;;;;;6124810;23;20006;-73
2023/09/14 11:51:34;;;;;;;2.03;1.27;;;;;;;;;;6124818;23;20002;-73
2023/09/14 11:54:01;;;;;;;3.92;1.48;;;;;;;;;;6125642;23;20010;-74
2023/09/14 11:56:28;;;;;;;2.75;1.10;;;;;;;;;;6124817;23;20422;-74
2023/09/14 11:58:58;;;;;;;1.88;1.42;;;;;;;;;;6125091;23;20089;-74
2023/09/14 12:01:31;;;;;;;3.45;1.40;;;25.30;62.70;;;;;;6124889;23;19998;-74
2023/09/14 12:03:58;;;;;;;1.45;1.08;;;25.30;60.80;;;;;;6124623;23;20302;-73
2023/09/14 12:06:26;;;;;;;3.45;1.40;;;25.40;62.90;;;;;;6124748;23;19994;-73
2023/09/14 12:08:53;;;;;;;2.50;1.30;;;;;;;;;;6125030;23;20279;-74
2023/09/14 12:11:21;;;;;;;2.75;1.67;;;;;;;;;;6124843;23;20444;-74
2023/09/14 12:13:55;;;;;;;2.92;1.27;;;25.50;56.90;;;;;;6124651;23;20006;-74
2023/09/14 12:16:23;;;;;;;3.28;1.55;;;25.50;62.50;;;;;;6124960;23;19998;-73
2023/09/14 12:18:50;;;;;;;2.95;1.70;;;;;;;;;;6124931;23;19994;-73
2023/09/14 12:21:17;;;;;;;2.47;1.40;;;;;;;;;;6125569;23;20010;-74
2023/09/14 12:23:44;;;;;;;1.90;1.40;;;;;;;;;;6124850;23;20009;-75
2023/09/14 12:26:15;;;;;;;4.43;1.27;;;26.10;61.30;;;;;;6124991;23;20052;-74
2023/09/14 12:29:04;;;;;;;4.10;1.30;;;26.10;61.70;;;;;;6124925;23;20354;-74
2023/09/14 12:31:34;;;;;;;2.00;1.38;;;;;;;;;;6123955;23;20430;-74
2023/09/14 12:34:01;;;;;;;1.60;1.13;;;;;;;;;;6124363;23;20080;-73
2023/09/14 12:36:27;;;;;;;1.23;1.08;;;;;;;;;;6124517;23;20064;-73
2023/09/14 12:38:54;;;;;;;1.63;1.30;;;;;;;;;;6124580;23;20081;-72
2023/09/14 12:41:21;;;;;;;2.22;1.35;;;26.10;61.80;;;;;;6124530;23;20441;-73
2023/09/14 12:43:48;;;;;;;3.40;1.33;;;;;;;;;;6134388;23;19994;-73
2023/09/14 12:46:14;;;;;;;1.80;1.00;;;;;;;;;;6134366;23;20048;-72
2023/09/14 12:48:43;;;;;;;2.15;1.55;;;26.00;56.50;;;;;;6134201;23;20024;-73
2023/09/14 12:51:12;;;;;;;2.05;1.23;;;26.10;61.80;;;;;;6134904;23;20135;-73
2023/09/14 12:53:40;;;;;;;2.05;1.48;;;;;;;;;;6134315;23;20061;-73
2023/09/14 12:56:06;;;;;;;1.92;1.60;;;;;;;;;;6134233;23;20450;-74
2023/09/14 12:58:33;;;;;;;1.85;1.42;;;;;;;;;;6134241;23;19998;-74
2023/09/14 13:00:59;;;;;;;2.45;1.30;;;;;;;;;;6134181;23;20002;-76
2023/09/14 13:03:25;;;;;;;2.28;1.60;;;26.90;57.30;;;;;;6134145;23;20025;-76
2023/09/14 13:05:54;;;;;;;2.10;1.38;;;27.00;54.50;;;;;;6134229;23;20374;-76
2023/09/14 13:08:20;;;;;;;1.67;1.23;;;;;;;;;;6124706;23;19998;-76
2023/09/14 13:10:46;;;;;;;3.45;1.60;;;;;;;;;;6134274;23;20434;-77
2023/09/14 13:13:12;;;;;;;2.20;1.60;;;;;;;;;;6134171;23;19994;-74
2023/09/14 13:15:40;;;;;;;2.45;1.30;;;26.70;59.80;;;;;;6134048;23;20060;-73
2023/09/14 13:18:24;;;;;;;2.97;1.65;;;26.80;54.60;;;;;;6134698;23;20018;-72
2023/09/14 13:20:51;;;;;;;1.58;1.20;;;26.70;60.10;;;;;;6134113;23;20001;-73
2023/09/14 13:23:21;;;;;;;3.35;1.33;;;26.70;60.40;;;;;;6133777;23;20080;-74
2023/09/14 13:25:47;;;;;;;3.25;1.63;;;;;;;;;;6134285;23;20437;-75
2023/09/14 13:28:13;;;;;;;2.33;1.85;;;;;;;;;;6134127;23;20017;-75
2023/09/14 13:30:39;;;;;;;2.45;1.58;;;;;;;;;;6134058;23;20009;-74
2023/09/14 13:33:06;;;;;;;2.70;1.90;;;;;;;;;;6134072;23;20434;-75
2023/09/14 13:35:33;;;;;;;1.98;1.75;;;;;;;;;;6134056;23;20037;-76
2023/09/14 13:37:59;;;;;;;2.10;1.48;;;;;;;;;;6124302;23;20002;-77
2023/09/14 13:40:27;;;;;;;3.25;1.80;;;27.40;59.10;;;;;;6134094;23;20002;-76
2023/09/14 13:43:02;;;;;;;2.10;1.50;;;27.00;56.60;;;;;;6124621;23;20005;-75
2023/09/14 13:45:29;;;;;;;2.15;1.63;;;27.60;56.10;;;;;;6134343;23;20001;-76
2023/09/14 13:47:55;;;;;;;2.95;1.27;;;;;;;;;;6136235;23;20052;-76
2023/09/14 13:50:22;;;;;;;1.63;1.40;;;27.70;55.80;;;;;;6135934;23;20002;-75
2023/09/14 13:52:48;;;;;;;2.67;1.90;;;;;;;;;;6135956;23;20322;-76
2023/09/14 13:55:17;;;;;;;2.58;1.70;;;;;;;;;;6135773;23;20508;-76
2023/09/14 13:57:46;;;;;;;1.80;1.50;;;27.90;57.60;;;;;;6135932;23;19994;-76
2023/09/14 14:00:13;;;;;;;2.80;1.40;;;27.90;57.30;;;;;;6135973;23;19998;-77
2023/09/14 14:02:49;;;;;;;2.92;1.75;;;28.10;56.80;;;;;;6135830;23;20009;-77
2023/09/14 14:05:18;;;;;;;3.10;1.80;;;;;;;;;;6126419;23;20058;-75
2023/09/14 14:07:44;;;;;;;2.38;1.63;;;;;;;;;;6135849;23;20013;-76
2023/09/14 14:10:10;;;;;;;1.88;1.10;;;;;;;;;;6126358;23;20006;-75